Time;durP1;ratioP1;P1;durP2;ratioP2;P2;SDS_P1;SDS_P2;PMS_P1;PMS_P2;Temp;Humidity;BMP_temperature;BMP_pressure;BME280_temperature;BME280_humidity;BME280_pressure;Samples;Min_cycle;Max_cycle;Signal;HPM_P1;HPM_P2
2022/07/11 14:18:33;;;;;;;3.10;2.70;;;36.00;27.90;;;28.31;31.12;95949.25;5067160;28;20319;-49
2022/07/11 14:20:58;;;;;;;3.03;2.50;;;36.00;27.00;;;28.31;31.01;95943.78;5047401;28;20040;-47
2022/07/11 14:23:25;;;;;;;3.22;2.28;;;36.30;26.30;;;28.41;31.26;95948.63;5045243;28;20041;-51
2022/07/11 14:25:52;;;;;;;3.25;2.72;;;36.70;25.70;;;28.38;30.50;95944.66;5058766;28;20040;-49
2022/07/11 14:28:19;;;;;;;2.40;2.30;;;37.30;24.90;;;28.41;30.45;95950.59;5043776;28;20139;-49
2022/07/11 14:30:45;;;;;;;3.85;2.42;;;37.70;24.30;;;28.58;31.04;95958.22;5028958;28;20017;-47
2022/07/11 14:33:11;;;;;;;2.67;2.58;;;38.10;23.90;;;27.94;31.61;95962.78;5045134;28;20093;-52
2022/07/11 14:35:37;;;;;;;2.83;2.63;;;38.40;23.50;;;28.29;30.68;95952.34;5053526;28;20048;-51
2022/07/11 14:38:03;;;;;;;2.50;2.30;;;38.70;23.20;;;28.84;29.85;95954.66;5033424;28;20041;-48
2022/07/11 14:40:30;;;;;;;4.28;2.72;;;38.90;22.90;;;29.20;29.45;95953.09;5046483;28;20032;-46
2022/07/11 14:42:56;;;;;;;4.85;2.97;;;39.20;22.70;;;29.33;29.42;95944.63;5043934;28;20486;-49
2022/07/11 14:45:30;;;;;;;3.17;2.60;;;39.60;22.40;;;29.22;30.02;95948.03;5045569;28;20073;-49
2022/07/11 14:47:56;;;;;;;3.60;3.05;;;39.90;22.20;;;29.31;29.94;95952.44;5045240;28;20546;-52
2022/07/11 14:50:28;;;;;;;2.70;2.50;;;40.20;22.00;;;29.49;29.48;95936.94;5046492;28;20135;-49
2022/07/11 14:52:54;;;;;;;2.53;2.42;;;40.50;21.70;;;29.29;29.40;95939.88;5046531;28;20112;-48
2022/07/11 14:55:23;;;;;;;2.90;2.28;;;40.80;21.50;;;29.30;29.97;95937.91;5046510;28;20115;-51
2022/07/11 14:57:51;;;;;;;3.00;2.80;;;41.10;21.30;;;29.88;28.87;95931.78;5044739;28;20056;-50
2022/07/11 15:00:30;;;;;;;3.13;2.92;;;41.50;21.10;;;29.59;29.26;95933.50;5046488;28;20024;-49
2022/07/11 15:05:43;;;;;;;3.25;2.78;;;42.40;20.50;;;29.28;29.97;95943.00;5045128;28;20383;-51
2022/07/11 15:13:40;;;;;;;3.35;2.90;;;43.50;19.80;;;30.22;28.88;95944.59;5046131;28;20055;-50
2022/07/11 15:16:07;;;;;;;4.85;3.45;;;43.90;19.50;;;29.73;29.38;95944.59;5045775;28;20498;-51
2022/07/11 15:18:35;;;;;;;3.33;3.13;;;44.30;19.30;;;29.26;30.03;95937.09;5046066;28;20067;-51
2022/07/11 15:21:01;;;;;;;3.60;3.30;;;44.50;19.00;;;29.40;29.69;95941.97;5046404;28;20422;-52
2022/07/11 15:23:27;;;;;;;3.25;2.85;;;44.70;18.70;;;28.69;31.07;95929.03;5046321;28;20024;-53
2022/07/11 15:25:53;;;;;;;3.95;3.67;;;45.10;18.50;;;29.62;29.97;95934.72;5044701;28;20428;-51
2022/07/11 15:28:33;;;;;;;4.07;3.78;;;45.30;18.30;;;30.38;29.74;95943.13;5026602;28;20029;-53
2022/07/11 15:30:59;;;;;;;4.63;4.32;;;46.00;18.20;;;30.29;29.42;95941.88;5033092;28;20021;-49
2022/07/11 15:33:28;;;;;;;3.50;3.25;;;46.70;17.80;;;30.78;28.33;95937.84;5031526;28;20020;-51
2022/07/11 15:35:55;;;;;;;4.47;4.18;;;47.30;17.50;;;29.31;29.60;95914.81;5033053;28;20059;-50
2022/07/11 15:38:26;;;;;;;4.07;3.75;;;47.80;17.00;;;29.87;29.03;95934.94;5032278;28;20084;-50
2022/07/11 15:40:52;;;;;;;4.10;3.90;;;48.10;16.60;;;30.46;28.70;95930.19;5031630;28;20043;-51
2022/07/11 15:43:18;;;;;;;5.07;4.78;;;48.50;16.40;;;30.33;28.90;95928.94;5031316;28;20033;-52
2022/07/11 15:45:50;;;;;;;5.40;5.10;;;48.90;16.20;;;30.40;28.72;95929.00;5033218;28;20035;-47
2022/07/11 15:48:22;;;;;;;6.20;5.57;;;49.20;16.10;;;30.09;29.17;95931.16;5030817;28;20115;-47
2022/07/11 15:50:51;;;;;;;6.28;5.88;;;49.40;16.00;;;29.15;30.50;95925.25;5031447;28;20058;-47
2022/07/11 15:53:23;;;;;;;5.80;5.40;;;49.40;15.60;;;29.57;29.66;95924.84;5032267;28;20399;-47
2022/07/11 15:55:55;;;;;;;5.25;4.95;;;49.30;15.60;;;30.89;28.42;95925.69;5018536;28;20457;-48
2022/07/11 15:58:26;;;;;;;5.38;5.03;;;49.40;15.70;;;30.86;28.42;95928.44;5029437;28;20033;-48
2022/07/11 16:00:57;;;;;;;7.90;4.90;;;49.50;15.60;;;31.16;27.40;95922.63;5031775;28;20020;-48
2022/07/11 16:03:23;;;;;;;7.90;4.85;;;49.50;15.50;;;32.05;26.72;95915.63;5029827;28;20029;-47
2022/07/11 16:05:49;;;;;;;7.40;5.25;;;49.70;15.50;;;30.95;28.21;95930.81;5029444;28;20547;-47
2022/07/11 16:08:18;;;;;;;5.07;4.68;;;49.80;15.40;;;31.20;27.74;95917.13;5030601;28;20035;-50
2022/07/11 16:10:44;;;;;;;4.10;3.90;;;49.80;15.30;;;30.73;28.39;95927.97;5030337;28;20067;-47
2022/07/11 16:13:10;;;;;;;4.32;4.13;;;49.80;15.20;;;29.92;29.80;95926.31;5029571;28;20033;-48
2022/07/11 16:15:40;;;;;;;4.97;4.60;;;49.60;15.20;;;29.97;29.73;95929.50;5031066;28;20384;-47
2022/07/11 16:18:06;;;;;;;4.28;4.00;;;49.60;15.20;;;30.58;28.90;95935.34;5029311;28;20049;-51
2022/07/11 16:20:32;;;;;;;3.65;3.35;;;49.50;15.10;;;30.57;28.76;95933.78;5012777;28;20029;-48
2022/07/11 16:22:58;;;;;;;4.50;4.30;;;49.50;15.10;;;30.94;28.70;95930.03;5031646;28;20032;-49
2022/07/11 16:25:30;;;;;;;4.38;4.00;;;49.40;15.10;;;30.48;29.10;95933.34;5029728;28;20060;-48
2022/07/11 16:27:59;;;;;;;4.25;4.05;;;49.40;15.10;;;30.76;28.63;95934.66;5013245;28;20033;-51
2022/07/11 16:30:36;;;;;;;3.85;3.65;;;49.40;15.10;;;31.10;27.84;95935.19;5029644;28;20025;-47
2022/07/11 16:33:04;;;;;;;4.13;3.92;;;49.40;15.10;;;31.02;27.65;95936.34;5030049;28;20103;-48
2022/07/11 16:35:31;;;;;;;4.57;4.35;;;49.40;15.10;;;30.92;28.30;95934.34;5030103;28;20024;-49
2022/07/11 16:38:16;;;;;;;4.18;3.88;;;49.40;15.10;;;29.63;30.20;95931.59;5030601;28;20536;-48
2022/07/11 16:43:26;;;;;;;5.25;4.95;;;49.30;15.20;;;29.91;30.14;95944.75;5020690;28;20071;-49
2022/07/11 16:45:56;;;;;;;4.30;4.00;;;49.20;15.20;;;29.38;31.64;95931.34;5031279;28;20024;-48
2022/07/11 16:48:33;;;;;;;4.00;3.80;;;49.10;15.30;;;29.42;30.75;95940.38;5029940;28;20029;-48
2022/07/11 16:51:07;;;;;;;4.00;3.70;;;49.20;15.30;;;30.05;29.98;95949.53;5030283;28;20277;-49
2022/07/11 16:53:36;;;;;;;5.18;4.78;;;49.10;15.30;;;29.94;29.87;95938.50;5030218;28;20029;-48
2022/07/11 16:56:04;;;;;;;4.97;4.50;;;49.10;15.20;;;30.09;29.84;95949.59;5029994;28;20028;-47
2022/07/11 16:58:31;;;;;;;4.53;4.15;;;49.10;15.20;;;30.55;29.42;95941.63;5031200;28;20155;-47
2022/07/11 17:00:57;;;;;;;4.30;3.95;;;49.10;15.20;;;29.39;30.83;95938.41;5031166;28;20029;-50
2022/07/11 17:03:29;;;;;;;3.60;3.35;;;49.20;15.20;;;29.22;31.15;95944.53;5029880;28;20028;-51
2022/07/11 17:05:55;;;;;;;4.93;4.05;;;49.10;15.10;;;29.57;31.05;95946.81;5029903;28;20017;-52
2022/07/11 17:11:18;;;;;;;3.63;3.42;;;49.20;15.20;;;29.79;30.40;95944.28;5030127;28;20051;-49
2022/07/11 17:14:00;;;;;;;2.85;2.72;;;49.10;15.10;;;29.24;30.96;95940.25;5046331;28;20024;-48
2022/07/11 17:16:32;;;;;;;2.13;2.00;;;48.70;15.10;;;28.83;31.67;95942.91;5026797;28;20145;-49
2022/07/11 17:19:03;;;;;;;1.65;1.55;;;46.70;15.50;;;28.13;32.75;95938.81;5029946;28;20050;-48
2022/07/11 17:21:34;;;;;;;3.58;1.40;;;44.00;16.70;;;27.53;33.90;95941.41;5029961;28;20029;-47
2022/07/11 17:24:13;;;;;;;3.72;1.10;;;41.30;18.20;;;26.70;35.54;95941.81;5013806;28;20039;-49
2022/07/11 17:26:43;;;;;;;1.15;1.05;;;38.90;19.70;;;26.23;36.73;95945.47;5029298;28;20078;-47
2022/07/11 17:29:15;;;;;;;2.10;1.30;;;36.90;21.20;;;25.79;37.27;95950.28;5029428;28;20017;-48
2022/07/11 17:31:45;;;;;;;3.97;0.90;;;35.20;22.50;;;25.33;38.42;95945.28;5029609;28;20109;-52
2022/07/11 17:34:15;;;;;;;1.73;1.10;;;33.90;23.40;;;25.00;39.38;95948.25;5030426;28;20107;-51
2022/07/11 17:36:42;;;;;;;2.85;1.00;;;32.80;24.50;;;24.84;39.97;95942.00;5030145;28;20383;-48
2022/07/11 17:39:11;;;;;;;3.45;1.88;;;31.80;25.40;;;24.31;41.21;95947.47;5030566;28;20020;-49
2022/07/11 17:41:43;;;;;;;1.52;0.90;;;31.10;26.50;;;23.98;41.57;95950.38;5029245;28;20386;-46
2022/07/11 17:44:09;;;;;;;0.77;0.77;;;30.40;27.30;;;23.90;41.60;95943.91;5029058;28;20074;-47
2022/07/11 17:46:35;;;;;;;1.30;0.98;;;29.80;27.80;;;23.67;42.28;95954.44;5030101;28;20036;-47
2022/07/11 17:49:01;;;;;;;1.55;1.05;;;29.40;28.50;;;23.49;42.45;95961.22;5029107;28;20032;-50
2022/07/11 17:51:39;;;;;;;2.22;0.82;;;28.90;29.00;;;23.36;43.07;95952.25;5029241;28;20021;-48
2022/07/11 17:54:05;;;;;;;1.67;0.85;;;28.50;29.60;;;23.37;43.59;95961.97;5029034;28;20020;-46
2022/07/11 17:56:31;;;;;;;1.75;0.82;;;28.20;29.90;;;23.09;43.49;95953.66;5030057;28;20068;-49
2022/07/11 17:58:57;;;;;;;0.80;0.80;;;27.90;30.30;;;22.96;43.77;95960.97;5030327;28;20060;-46
2022/07/11 18:01:24;;;;;;;1.23;0.88;;;27.70;30.80;;;22.88;44.21;95959.13;5029037;28;20032;-46
2022/07/11 18:03:50;;;;;;;1.25;1.15;;;27.50;31.30;;;22.73;44.45;95952.38;5028661;28;20029;-45
2022/07/11 18:06:22;;;;;;;1.67;0.90;;;27.30;31.70;;;22.59;45.00;95954.56;5028474;28;20112;-48
2022/07/11 18:08:51;;;;;;;0.93;0.77;;;27.10;32.10;;;22.58;44.68;95956.50;5030110;28;20460;-46
2022/07/11 18:11:17;;;;;;;3.45;1.20;;;26.90;32.50;;;22.54;45.00;95969.16;5028876;28;20450;-47
2022/07/11 18:13:49;;;;;;;2.88;1.23;;;26.80;32.70;;;22.38;45.27;95960.81;5028200;28;20104;-45
2022/07/11 18:16:15;;;;;;;1.38;0.90;;;26.70;33.20;;;22.31;45.61;95957.84;5029430;28;20029;-46
2022/07/11 18:18:44;;;;;;;0.70;0.70;;;26.60;33.30;;;22.36;45.47;95968.47;5029194;28;20102;-46
2022/07/11 18:21:10;;;;;;;2.70;1.00;;;26.50;33.60;;;22.27;46.14;95962.31;5044892;28;20111;-45
2022/07/11 18:23:42;;;;;;;2.90;0.80;;;26.40;33.80;;;22.20;46.62;95975.63;5029952;28;20020;-46
2022/07/11 18:26:08;;;;;;;4.63;0.80;;;26.40;34.40;;;22.16;46.58;95972.78;5028143;28;20089;-53
2022/07/11 18:28:34;;;;;;;2.45;1.05;;;26.20;34.30;;;22.10;46.56;95974.06;5028424;28;20555;-47
2022/07/11 18:31:00;;;;;;;3.13;0.90;;;26.20;34.60;;;22.10;46.91;95981.41;5029788;28;20035;-47
2022/07/11 18:33:26;;;;;;;0.95;0.75;;;26.10;34.80;;;21.99;46.60;95975.56;5024759;28;20023;-48
2022/07/11 18:35:52;;;;;;;3.67;1.08;;;26.00;35.00;;;21.98;47.88;95973.97;4991980;28;20050;-46
2022/07/11 18:38:18;;;;;;;2.17;0.82;;;25.90;35.40;;;21.84;47.56;95978.81;5020494;28;20030;-45
2022/07/11 18:43:28;;;;;;;1.00;0.90;;;25.70;35.90;;;21.55;48.23;95974.97;5021324;28;20048;-48
2022/07/11 18:45:57;;;;;;;4.50;1.10;;;25.60;36.10;;;21.59;48.92;95969.69;5009046;28;20071;-49
2022/07/11 18:48:23;;;;;;;2.88;1.20;;;25.50;36.50;;;21.50;48.97;95975.19;5008597;28;20021;-46
2022/07/11 18:50:52;;;;;;;3.40;1.20;;;25.30;36.70;;;21.37;48.94;95970.75;5009072;28;20029;-47
2022/07/11 18:53:24;;;;;;;5.25;1.00;;;25.20;37.00;;;21.26;49.45;95975.69;5008698;28;20478;-45
2022/07/11 18:55:49;;;;;;;2.17;0.80;;;25.10;37.40;;;21.14;49.66;95981.78;5007476;28;20510;-48
2022/07/11 18:58:15;;;;;;;0.80;0.80;;;25.00;37.30;;;21.08;49.86;95979.56;5007823;28;20033;-47
2022/07/11 19:00:43;;;;;;;2.08;0.75;;;24.90;37.60;;;20.96;49.90;95975.59;5008901;28;20396;-45
2022/07/11 19:03:09;;;;;;;1.85;0.82;;;24.80;37.90;;;20.93;50.29;95975.44;5008942;28;20063;-47
2022/07/11 19:05:38;;;;;;;2.67;0.70;;;24.70;38.10;;;20.88;51.04;95986.44;5012075;28;20029;-47
2022/07/11 19:08:04;;;;;;;2.47;0.90;;;24.60;38.50;;;20.76;51.03;95987.88;5027154;28;20037;-49
2022/07/11 19:10:30;;;;;;;3.60;1.20;;;24.50;38.70;;;20.70;52.60;95982.97;5012215;28;20026;-48
2022/07/11 19:12:56;;;;;;;4.85;1.08;;;24.40;39.10;;;20.55;53.08;95992.34;5012032;28;20029;-48
2022/07/11 19:15:22;;;;;;;2.53;0.88;;;24.30;39.50;;;20.38;53.46;95997.72;5010634;28;20483;-48
2022/07/11 19:17:57;;;;;;;4.57;0.75;;;24.10;39.80;;;20.15;54.56;95997.03;5011811;28;20045;-51
2022/07/11 19:20:26;;;;;;;3.05;0.88;;;24.00;40.50;;;19.88;55.43;95997.00;5027546;28;20120;-50
2022/07/11 19:22:58;;;;;;;2.90;1.33;;;23.80;40.70;;;19.67;56.74;96003.28;5012164;28;20125;-49
2022/07/11 19:25:24;;;;;;;0.55;0.55;;;23.60;41.20;;;19.51;57.37;96009.06;5012284;28;20083;-50
2022/07/11 19:27:50;;;;;;;2.25;0.80;;;23.40;41.40;;;19.38;57.36;96009.97;5010020;28;20033;-47
2022/07/11 19:30:22;;;;;;;3.28;0.90;;;23.30;41.90;;;19.21;57.84;96012.56;5011933;28;20025;-51
2022/07/11 19:32:49;;;;;;;2.25;0.90;;;23.10;42.60;;;19.00;58.70;96020.38;5010740;28;20051;-49
2022/07/11 19:35:17;;;;;;;0.80;0.70;;;22.90;42.60;;;18.84;59.64;96014.56;5006504;28;20434;-50
2022/07/11 19:37:43;;;;;;;0.60;0.60;;;22.80;43.30;;;18.65;60.72;96022.78;5026840;28;20040;-50
2022/07/11 19:40:28;;;;;;;2.50;0.93;;;22.60;43.50;;;18.47;60.61;96027.25;5010358;28;20021;-50
2022/07/11 19:42:55;;;;;;;1.02;0.82;;;22.40;44.20;;;18.31;61.92;96029.47;5011724;28;20021;-49
2022/07/11 19:45:21;;;;;;;2.50;0.80;;;22.20;44.20;;;18.18;61.80;96036.47;5026749;28;20025;-48
2022/07/11 19:47:47;;;;;;;1.42;0.70;;;22.00;44.60;;;17.99;62.99;96036.59;5026804;28;20036;-51
2022/07/11 19:50:13;;;;;;;0.60;0.60;;;21.90;45.00;;;17.86;63.26;96045.47;5011491;28;20021;-50
2022/07/11 19:52:41;;;;;;;4.45;0.80;;;21.80;45.40;;;17.77;63.28;96049.97;5011877;28;20438;-53
2022/07/11 19:58:00;;;;;;;0.80;0.80;;;21.50;46.30;;;17.56;63.59;96053.00;5024016;28;20039;-50
2022/07/11 20:00:26;;;;;;;1.75;0.60;;;21.40;46.30;;;17.52;62.31;96053.91;5011507;28;20163;-46
2022/07/11 20:02:55;;;;;;;0.50;0.50;;;21.30;46.40;;;17.67;61.97;96061.69;5026825;28;20036;-46
2022/07/11 20:05:23;;;;;;;0.85;0.50;;;21.30;46.60;;;17.85;60.83;96065.44;5009619;28;20033;-47
2022/07/11 20:07:50;;;;;;;3.80;1.08;;;21.30;46.80;;;18.00;60.31;96067.84;5006997;28;20025;-47
2022/07/11 20:10:16;;;;;;;6.03;0.65;;;21.30;46.80;;;18.22;59.39;96074.41;5009502;28;20040;-50
2022/07/11 20:12:43;;;;;;;0.77;0.60;;;21.40;46.80;;;18.36;58.96;96069.00;5007791;28;20116;-49
2022/07/11 20:15:11;;;;;;;2.03;0.70;;;21.50;46.80;;;18.45;58.52;96069.88;4993456;28;20472;-51
2022/07/11 20:17:41;;;;;;;0.50;0.50;;;21.60;46.80;;;18.49;58.42;96071.69;5008449;28;20136;-49
2022/07/11 20:20:10;;;;;;;3.70;0.50;;;21.70;46.80;;;18.45;59.04;96073.38;4997859;28;20027;-50
2022/07/11 20:22:37;;;;;;;1.08;0.77;;;21.70;46.70;;;18.39;59.35;96076.50;5010503;28;20025;-50
2022/07/11 20:25:07;;;;;;;0.70;0.70;;;21.70;46.50;;;18.40;59.49;96078.91;4979543;28;20022;-52
2022/07/11 20:27:34;;;;;;;2.45;0.80;;;21.80;46.70;;;18.39;59.62;96084.56;5009030;28;20119;-52
2022/07/11 20:30:10;;;;;;;2.25;0.90;;;21.80;46.60;;;18.34;60.07;96088.19;5026168;28;20036;-49
2022/07/11 20:32:36;;;;;;;1.48;0.80;;;21.80;46.90;;;18.31;60.20;96085.31;5011007;28;20120;-48
2022/07/11 20:35:09;;;;;;;4.40;1.27;;;21.80;46.70;;;18.26;59.96;96088.88;5026352;28;20064;-54
2022/07/11 20:37:36;;;;;;;1.45;0.82;;;21.80;46.80;;;18.25;60.06;96085.41;5008785;28;20035;-51
2022/07/11 20:40:03;;;;;;;1.23;0.80;;;21.80;46.80;;;18.28;60.04;96094.78;5010893;28;20029;-53
2022/07/11 20:42:29;;;;;;;1.80;1.10;;;21.80;46.90;;;18.28;59.71;96094.78;5008695;28;20040;-48
2022/07/11 20:44:58;;;;;;;1.30;0.70;;;21.80;46.90;;;18.24;59.95;96096.50;5010710;28;20104;-49
2022/07/11 20:47:24;;;;;;;1.80;1.05;;;21.80;47.10;;;18.21;59.73;96100.59;5025284;28;20053;-48
2022/07/11 20:49:49;;;;;;;1.15;0.82;;;21.80;47.10;;;18.20;59.50;96107.06;5010619;28;20044;-48
2022/07/11 20:52:15;;;;;;;3.38;1.00;;;21.70;47.10;;;18.26;59.36;96102.38;5009642;28;20025;-49
2022/07/11 20:54:42;;;;;;;4.30;3.05;;;21.80;47.20;;;18.21;59.56;96100.59;5009946;28;20032;-48
2022/07/11 20:57:08;;;;;;;1.45;1.10;;;21.70;47.20;;;18.19;59.76;96099.28;5024633;28;20542;-48
2022/07/11 20:59:34;;;;;;;2.28;1.10;;;21.70;47.20;;;18.17;59.57;96104.16;5025124;28;20030;-48
2022/07/11 21:02:00;;;;;;;0.90;0.90;;;21.70;47.20;;;18.14;59.65;96096.69;5009899;28;20021;-48
2022/07/11 21:04:28;;;;;;;2.05;0.85;;;21.70;47.30;;;18.12;59.67;96105.09;5008832;28;20024;-48
2022/07/11 21:06:54;;;;;;;1.20;1.10;;;21.70;47.30;;;18.09;59.90;96104.88;5008352;28;20149;-49
2022/07/11 21:09:32;;;;;;;2.67;1.10;;;21.70;47.30;;;18.04;59.81;96097.69;5010231;28;20517;-49
2022/07/11 21:11:58;;;;;;;1.42;0.90;;;21.70;47.60;;;17.99;60.16;96098.59;5008570;28;20116;-49
2022/07/11 21:14:29;;;;;;;3.15;1.00;;;21.60;47.40;;;17.96;60.30;96096.50;5010092;28;20339;-48
2022/07/11 21:16:55;;;;;;;1.17;1.08;;;21.60;47.60;;;17.89;60.62;96096.06;5020694;28;20140;-52
2022/07/11 21:19:21;;;;;;;1.85;1.00;;;21.60;47.60;;;17.91;60.47;96101.19;5008406;28;20104;-48
2022/07/11 21:21:50;;;;;;;1.33;1.00;;;21.50;48.20;;;17.80;60.71;96100.59;5009156;28;20029;-50
2022/07/11 21:24:15;;;;;;;1.50;1.10;;;21.50;47.80;;;17.79;60.98;96094.38;5025934;28;20021;-52
